Meteorología y climatología de Navarra
Datos de la estación - Meteo Navarra

Estación de Carcastillo (La Oliva) GN

Altitud 343 m.


Datos desde el 02/08/2020 hasta el 03/08/2020 en horario solar
Los datos son PROVISIONALES

Anterior Página 1 de 1 Siguiente Descargar: Formato para Excel 2000 o superior   Formato csv   Formato para OpenOffice Calc
Fecha Temperatura Humedad relativa Radiación global Insolación Precipitación Vel. viento 10 m Vel. viento 10 m Dir. viento 10 m
ºC % W/m² s l/m² m/s km/h º
02/08/2020 0:00 19.5 80 0.0 0 0.0 4.1 14.8 313
02/08/2020 0:10 19.6 79 0.0 0 0.0 3.4 12.2 311
02/08/2020 0:20 19.7 79 0.0 0 0.0 2.9 10.3 283
02/08/2020 0:30 19.4 80 0.0 0 0.0 3.3 11.7 280
02/08/2020 0:40 19.3 80 0.0 0 0.0 3.4 12.2 276
02/08/2020 0:50 19.2 80 0.0 0 0.0 3.1 11.2 292
02/08/2020 1:00 19.2 79 0.0 0 0.0 4.0 14.5 308
02/08/2020 1:10 19.3 79 0.0 0 0.0 4.0 14.5 315
02/08/2020 1:20 19.2 79 0.0 0 0.0 4.1 14.7 316
02/08/2020 1:30 19.1 80 0.0 0 0.0 3.6 13.0 311
02/08/2020 1:40 18.9 80 0.0 0 0.0 3.3 11.7 305
02/08/2020 1:50 18.8 80 0.0 0 0.0 2.9 10.6 298
02/08/2020 2:00 18.8 80 0.0 0 0.0 3.7 13.3 304
02/08/2020 2:10 18.9 78 0.0 0 0.0 4.3 15.4 313
02/08/2020 2:20 19.0 77 0.0 0 0.0 3.9 14.1 315
02/08/2020 2:30 19.1 76 0.0 0 0.0 4.3 15.4 315
02/08/2020 2:40 19.0 77 0.0 0 0.0 4.3 15.6 310
02/08/2020 2:50 18.9 77 0.0 0 0.0 4.2 15.0 309
02/08/2020 3:00 18.9 77 0.0 0 0.0 3.4 12.2 310
02/08/2020 3:10 18.8 77 0.0 0 0.0 3.2 11.5 304
02/08/2020 3:20 18.7 77 0.0 0 0.0 2.2 8.0 302
02/08/2020 3:30 18.5 77 0.0 0 0.0 2.3 8.1 292
02/08/2020 3:40 18.3 77 0.0 0 0.0 2.2 7.7 290
02/08/2020 3:50 18.2 77 0.0 0 0.0 1.9 6.8 279
02/08/2020 4:00 18.0 78 0.0 0 0.0 1.8 6.5 285
02/08/2020 4:10 17.9 79 0.0 0 0.0 1.7 6.0 287
02/08/2020 4:20 17.7 80 0.0 0 0.0 1.9 6.9 291
02/08/2020 4:30 17.7 80 0.0 0 0.0 2.0 7.1 289
02/08/2020 4:40 17.6 81 0.0 0 0.0 1.4 5.0 293
02/08/2020 4:50 17.5 82 0.0 0 0.0 1.5 5.5 292
02/08/2020 5:00 17.6 82 0.0 0 0.0 1.5 5.5 294
02/08/2020 5:10 17.5 82 0.0 0 0.0 1.7 6.2 301
02/08/2020 5:20 17.5 82 12.3 0 0.0 1.7 5.9 301
02/08/2020 5:30 17.5 82 33.9 418 0.0 2.1 7.6 305
02/08/2020 5:40 17.5 82 54.4 600 0.0 1.8 6.3 306
02/08/2020 5:50 17.6 83 77.4 600 0.0 2.5 9.1 315
02/08/2020 6:00 17.7 82 104.7 600 0.0 2.5 9.0 309
02/08/2020 6:10 18.1 82 131.1 600 0.0 2.2 7.8 298
02/08/2020 6:20 18.4 80 157.9 600 0.0 2.1 7.7 300
02/08/2020 6:30 18.9 78 186.2 600 0.0 2.5 8.8 304
02/08/2020 6:40 19.3 76 216.4 600 0.0 2.7 9.7 305
02/08/2020 6:50 19.7 74 247.7 600 0.0 2.7 9.6 298
02/08/2020 7:00 20.0 72 281.4 600 0.0 2.7 9.6 296
02/08/2020 7:10 20.4 71 317.6 600 0.0 2.9 10.3 303
02/08/2020 7:20 20.8 69 354.0 600 0.0 3.6 12.9 306
02/08/2020 7:30 21.2 66 390.4 600 0.0 4.1 14.7 314
02/08/2020 7:40 21.6 64 423.9 600 0.0 4.4 15.8 315
02/08/2020 7:50 21.9 63 456.8 600 0.0 4.4 16.0 318
02/08/2020 8:00 22.2 62 487.4 600 0.0 4.5 16.1 313
02/08/2020 8:10 22.5 61 518.2 600 0.0 4.0 14.3 315
02/08/2020 8:20 22.9 60 551.9 600 0.0 4.1 14.8 312
02/08/2020 8:30 23.2 58 586.1 600 0.0 4.6 16.5 322
02/08/2020 8:40 23.5 57 633.2 600 0.0 4.3 15.4 335
02/08/2020 8:50 23.7 56 629.8 582 0.0 4.2 15.0 327
02/08/2020 9:00 24.0 55 545.4 436 0.0 3.9 14.0 318
02/08/2020 9:10 23.9 54 642.3 528 0.0 4.6 16.6 324
02/08/2020 9:20 24.2 53 664.3 546 0.0 4.3 15.5 318
02/08/2020 9:30 24.3 54 676.7 496 0.0 4.9 17.5 304
02/08/2020 9:40 24.4 53 666.5 504 0.0 5.2 18.8 315
02/08/2020 9:50 24.2 53 779.1 578 0.0 5.0 17.8 315
02/08/2020 10:00 24.6 52 817.0 600 0.0 5.2 18.9 319
02/08/2020 10:10 24.5 51 786.8 600 0.0 5.2 18.6 321
02/08/2020 10:20 24.8 51 877.0 600 0.0 5.1 18.4 326
02/08/2020 10:30 25.0 50 874.0 594 0.0 5.7 20.6 318
02/08/2020 10:40 25.2 49 933.0 600 0.0 5.5 19.7 329
02/08/2020 10:50 25.1 49 803.0 600 0.0 5.7 20.6 322
02/08/2020 11:00 25.2 49 882.0 600 0.0 5.5 19.9 336
02/08/2020 11:10 25.1 47 900.0 600 0.0 5.7 20.6 332
02/08/2020 11:20 25.3 48 950.0 600 0.0 4.9 17.6 335
02/08/2020 11:30 25.7 46 949.0 600 0.0 6.2 22.2 326
02/08/2020 11:40 25.7 46 949.0 600 0.0 5.8 21.0 318
02/08/2020 11:50 25.9 46 963.0 600 0.0 4.9 17.7 335
02/08/2020 12:00 25.9 46 907.0 600 0.0 5.4 19.4 333
02/08/2020 12:10 26.1 45 1053.0 600 0.0 6.2 22.1 332
02/08/2020 12:20 25.9 45 790.2 600 0.0 5.4 19.5 333
02/08/2020 12:30 25.8 46 769.5 600 0.0 5.0 18.0 336
02/08/2020 12:40 25.9 45 786.6 600 0.0 5.3 19.1 330
02/08/2020 12:50 25.7 45 686.9 600 0.0 5.5 19.9 340
02/08/2020 13:00 25.6 45 749.7 600 0.0 5.3 19.0 345
02/08/2020 13:10 25.8 45 575.6 600 0.0 5.3 18.9 352
02/08/2020 13:20 25.4 45 557.6 600 0.0 5.1 18.2 342
02/08/2020 13:30 25.5 45 581.6 600 0.0 4.9 17.6 342
02/08/2020 13:40 25.9 44 677.1 600 0.0 4.9 17.5 330
02/08/2020 13:50 25.8 44 616.8 600 0.0 5.3 19.1 324
02/08/2020 14:00 26.0 44 712.2 596 0.0 5.5 19.9 326
02/08/2020 14:10 25.7 47 449.7 234 0.0 5.1 18.3 351
02/08/2020 14:20 25.4 45 401.9 114 0.0 5.0 18.1 338
02/08/2020 14:30 25.1 47 459.4 446 0.0 5.5 19.9 359
02/08/2020 14:40 24.7 48 525.0 524 0.0 5.4 19.5 3
02/08/2020 14:50 24.8 48 517.7 520 0.0 5.3 19.2 9
02/08/2020 15:00 24.4 47 417.8 206 0.0 5.7 20.3 2
02/08/2020 15:10 24.3 46 383.4 132 0.0 5.5 19.6 347
02/08/2020 15:20 24.3 46 344.7 0 0.0 4.4 15.7 350
02/08/2020 15:30 24.4 47 335.0 18 0.0 5.0 18.0 360
02/08/2020 15:40 24.0 48 344.1 76 0.0 6.0 21.5 15
02/08/2020 15:50 23.9 48 326.0 98 0.0 4.5 16.1 7
02/08/2020 16:00 23.8 49 304.9 94 0.0 5.4 19.5 13
02/08/2020 16:10 23.4 49 245.6 0 0.0 6.9 24.7 15
02/08/2020 16:20 23.0 50 221.6 0 0.0 5.7 20.4 5
02/08/2020 16:30 22.9 49 191.4 0 0.0 6.1 22.1 4
02/08/2020 16:40 22.7 48 172.3 0 0.0 5.3 18.9 351
02/08/2020 16:50 22.7 49 190.5 0 0.0 5.1 18.5 3
02/08/2020 17:00 22.5 50 154.7 0 0.0 5.7 20.6 357
02/08/2020 17:10 22.5 50 136.9 0 0.0 4.4 15.8 352
02/08/2020 17:20 22.3 50 143.5 0 0.0 3.9 14.1 354
02/08/2020 17:30 22.3 51 174.9 194 0.0 4.9 17.5 7
02/08/2020 17:40 22.5 51 314.6 600 0.0 4.8 17.3 352
02/08/2020 17:50 22.9 49 295.3 600 0.0 5.7 20.6 351
02/08/2020 18:00 22.7 49 225.3 600 0.0 6.4 23.0 353
02/08/2020 18:10 22.4 50 186.2 600 0.0 6.3 22.8 349
02/08/2020 18:20 22.1 51 144.0 588 0.0 7.3 26.1 350
02/08/2020 18:30 21.7 52 67.2 126 0.0 5.6 20.1 351
02/08/2020 18:40 21.2 53 36.3 0 0.0 5.5 19.9 355
02/08/2020 18:50 20.8 55 26.6 0 0.0 4.2 15.1 334
02/08/2020 19:00 20.6 55 20.3 0 0.0 4.2 15.2 324
02/08/2020 19:10 20.3 56 3.8 0 0.0 4.6 16.4 313
02/08/2020 19:20 19.8 60 0.0 0 0.0 4.5 16.2 312
02/08/2020 19:30 19.5 62 0.0 0 0.0 5.0 17.9 320
02/08/2020 19:40 19.3 63 0.0 0 0.0 4.9 17.6 320
02/08/2020 19:50 19.2 63 0.0 0 0.0 4.9 17.5 319
02/08/2020 20:00 19.1 64 0.0 0 0.0 4.5 16.1 321
02/08/2020 20:10 19.1 64 0.0 0 0.0 4.8 17.2 317
02/08/2020 20:20 19.1 63 0.0 0 0.0 4.0 14.4 318
02/08/2020 20:30 19.0 61 0.0 0 0.0 3.9 14.1 318
02/08/2020 20:40 19.0 60 0.0 0 0.0 4.2 15.0 319
02/08/2020 20:50 19.1 59 0.0 0 0.0 3.8 13.8 319
02/08/2020 21:00 19.0 59 0.0 0 0.0 4.3 15.5 323
02/08/2020 21:10 18.9 61 0.0 0 0.0 3.9 13.9 309
02/08/2020 21:20 18.7 62 0.0 0 0.0 3.9 14.1 315
02/08/2020 21:30 18.6 63 0.0 0 0.0 4.1 14.7 313
02/08/2020 21:40 18.4 65 0.0 0 0.0 4.2 15.2 312
02/08/2020 21:50 18.3 66 0.0 0 0.0 4.3 15.5 313
02/08/2020 22:00 18.2 67 0.0 0 0.0 4.3 15.6 311
02/08/2020 22:10 18.2 66 0.0 0 0.0 4.1 14.6 312
02/08/2020 22:20 18.2 67 0.0 0 0.0 4.5 16.3 311
02/08/2020 22:30 18.2 67 0.0 0 0.0 4.1 14.7 316
02/08/2020 22:40 18.2 67 0.0 0 0.0 3.2 11.3 307
02/08/2020 22:50 18.1 68 0.0 0 0.0 3.0 10.8 302
02/08/2020 23:00 17.9 68 0.0 0 0.0 3.4 12.3 306
02/08/2020 23:10 18.0 68 0.0 0 0.0 3.4 12.3 311
02/08/2020 23:20 18.0 69 0.0 0 0.0 4.2 15.0 314
02/08/2020 23:30 17.9 68 0.0 0 0.0 4.5 16.1 315
02/08/2020 23:40 18.0 68 0.0 0 0.0 4.2 15.2 314
02/08/2020 23:50 17.9 69 0.0 0 0.0 3.9 14.0 311
Anterior Página 1 de 1 Siguiente

NOTA: Tipo de datos según el color:
   - Valores diarios o 10 minutos correctos
   - Valores diarios calculados a partir de un número de datos 10 minutos menor que 144 y mayor que 120, o de un número de datos semihorarios menor que 48 y mayor que 40 (caso de las estaciones de INTIA y del Ministerio)
   - Valores diez minutos estimados


Contacto        Enlaces        Aviso legal